createdAt,value
2023-04-15T00:01:20.087Z,4.18
2023-04-15T00:03:50.528Z,4.55
2023-04-15T00:06:17.314Z,4.28
2023-04-15T00:08:44.037Z,5.97
2023-04-15T00:11:10.807Z,3.85
2023-04-15T00:13:37.699Z,9.65
2023-04-15T00:16:04.759Z,6.30
2023-04-15T00:18:31.561Z,5.00
2023-04-15T00:20:58.836Z,6.57
2023-04-15T00:23:25.987Z,5.15
2023-04-15T00:25:52.907Z,6.47
2023-04-15T00:28:19.638Z,4.97
2023-04-15T00:30:47.141Z,4.72
2023-04-15T00:33:16.372Z,8.00
2023-04-15T00:35:43.274Z,5.20
2023-04-15T00:38:10.170Z,4.18
2023-04-15T00:40:37.657Z,6.97
2023-04-15T00:43:04.386Z,6.20
2023-04-15T00:45:31.813Z,4.15
2023-04-15T00:47:58.941Z,5.13
2023-04-15T00:50:25.811Z,7.40
2023-04-15T00:52:52.565Z,6.80
2023-04-15T00:55:19.308Z,5.25
2023-04-15T00:57:46.483Z,9.43
2023-04-15T01:00:13.778Z,4.38
2023-04-15T01:02:40.941Z,5.47
2023-04-15T01:05:08.450Z,8.35
2023-04-15T01:07:35.281Z,4.43
2023-04-15T01:10:06.306Z,6.40
2023-04-15T01:12:34.195Z,5.85
2023-04-15T01:15:02.132Z,6.25
2023-04-15T01:17:29.400Z,6.45
2023-04-15T01:19:59.929Z,7.18
2023-04-15T01:22:28.631Z,5.45
2023-04-15T01:25:04.712Z,7.30
2023-04-15T01:27:32.185Z,4.38
2023-04-15T01:29:58.881Z,6.45
2023-04-15T01:32:25.832Z,3.83
2023-04-15T01:34:52.706Z,4.43
2023-04-15T01:37:19.514Z,5.38
2023-04-15T01:39:46.255Z,5.25
2023-04-15T01:42:12.990Z,7.45
2023-04-15T01:44:39.808Z,5.85
2023-04-15T01:47:06.845Z,4.53
2023-04-15T01:49:33.674Z,8.13
2023-04-15T01:52:00.573Z,7.15
2023-04-15T01:54:27.536Z,8.15
2023-04-15T01:56:54.310Z,5.15
2023-04-15T01:59:21.185Z,6.05
2023-04-15T02:01:47.948Z,6.13
2023-04-15T02:04:17.207Z,4.80
2023-04-15T02:06:44.155Z,6.07
2023-04-15T02:09:11.032Z,5.10
2023-04-15T02:11:37.804Z,4.65
2023-04-15T02:14:05.735Z,5.80
2023-04-15T02:16:32.865Z,7.50
2023-04-15T02:19:00.920Z,5.43
2023-04-15T02:21:27.890Z,8.40
2023-04-15T02:23:56.201Z,5.03
2023-04-15T02:26:23.254Z,4.88
2023-04-15T02:28:51.332Z,4.68
2023-04-15T02:31:18.251Z,3.63
2023-04-15T02:33:45.337Z,5.47
2023-04-15T02:36:12.369Z,4.50
2023-04-15T02:38:41.212Z,5.45
2023-04-15T02:41:09.424Z,6.18
2023-04-15T02:43:36.223Z,4.13
2023-04-15T02:46:03.030Z,5.43
2023-04-15T02:48:29.794Z,6.28
2023-04-15T02:51:16.010Z,5.07
2023-04-15T02:53:43.263Z,4.15
2023-04-15T02:56:10.073Z,5.40
2023-04-15T02:58:36.851Z,5.28
2023-04-15T03:01:03.811Z,4.00
2023-04-15T03:03:31.105Z,6.38
2023-04-15T03:05:58.071Z,6.53
2023-04-15T03:08:24.878Z,9.70
2023-04-15T03:11:00.719Z,6.78
2023-04-15T03:13:27.576Z,8.57
2023-04-15T03:15:54.506Z,5.88
2023-04-15T03:18:21.625Z,6.82
2023-04-15T03:20:48.333Z,5.85
2023-04-15T03:23:15.352Z,6.40
2023-04-15T03:25:42.382Z,8.85
2023-04-15T03:28:09.302Z,5.75
2023-04-15T03:30:36.107Z,6.82
2023-04-15T03:33:02.935Z,5.88
2023-04-15T03:35:29.840Z,8.38
2023-04-15T03:37:57.076Z,5.32
2023-04-15T03:40:23.819Z,5.70
2023-04-15T03:42:50.602Z,6.20
2023-04-15T03:45:17.378Z,6.05
2023-04-15T03:47:44.221Z,6.97
2023-04-15T03:50:11.541Z,5.57
2023-04-15T03:52:38.598Z,6.68
2023-04-15T03:55:05.753Z,9.05
2023-04-15T03:57:33.159Z,7.57
2023-04-15T04:22:42.293Z,7.93
2023-04-15T04:25:10.286Z,8.00
2023-04-15T04:27:37.151Z,8.85
2023-04-15T04:30:05.401Z,7.90
2023-04-15T04:32:32.250Z,9.73
2023-04-15T04:34:58.993Z,11.18
2023-04-15T04:37:25.828Z,8.15
2023-04-15T04:39:52.557Z,7.05
2023-04-15T04:42:19.321Z,11.70
2023-04-15T04:44:46.321Z,11.52
2023-04-15T04:47:13.894Z,9.00
2023-04-15T04:49:41.143Z,10.55
2023-04-15T04:52:08.661Z,11.75
2023-04-15T04:54:35.794Z,16.40
2023-04-15T04:57:02.977Z,12.50
2023-04-15T04:59:29.757Z,19.90
2023-04-15T05:01:56.963Z,14.10
2023-04-15T05:04:23.923Z,13.27
2023-04-15T05:06:50.896Z,13.15
2023-04-15T05:09:17.787Z,15.55
2023-04-15T05:11:44.521Z,15.63
2023-04-15T05:14:11.429Z,12.35
2023-04-15T05:16:38.235Z,18.48
2023-04-15T05:19:04.970Z,15.93
2023-04-15T05:21:32.050Z,14.02
2023-04-15T05:23:58.864Z,18.75
2023-04-15T05:26:25.629Z,16.88
2023-04-15T05:28:52.336Z,15.70
2023-04-15T05:31:19.446Z,15.85
2023-04-15T05:33:46.371Z,16.20
2023-04-15T05:36:13.291Z,15.20
2023-04-15T05:38:40.058Z,15.30
2023-04-15T05:41:06.815Z,16.40
2023-04-15T05:43:33.685Z,17.00
2023-04-15T05:46:00.545Z,16.08
2023-04-15T05:48:27.324Z,18.42
2023-04-15T05:50:54.200Z,20.55
2023-04-15T05:53:21.533Z,17.27
2023-04-15T05:55:48.246Z,19.20
2023-04-15T05:58:14.993Z,21.77
2023-04-15T06:00:41.757Z,15.25
2023-04-15T06:03:08.578Z,16.02
2023-04-15T06:05:35.645Z,16.55
2023-04-15T06:08:02.584Z,19.55
2023-04-15T06:10:29.446Z,15.70
2023-04-15T06:12:56.274Z,14.48
2023-04-15T06:15:23.301Z,20.38
2023-04-15T06:17:50.076Z,16.85
2023-04-15T06:20:16.906Z,17.65
2023-04-15T06:22:43.705Z,18.05
2023-04-15T06:25:10.926Z,14.88
2023-04-15T06:27:37.723Z,15.93
2023-04-15T06:30:06.390Z,16.98
2023-04-15T06:32:33.602Z,14.38
2023-04-15T06:35:01.103Z,15.25
2023-04-15T06:37:27.810Z,14.00
2023-04-15T06:39:54.550Z,12.30
2023-04-15T06:42:21.577Z,13.98
2023-04-15T06:44:48.305Z,15.82
2023-04-15T06:47:15.296Z,16.50
2023-04-15T06:49:43.054Z,16.92
2023-04-15T06:52:11.320Z,15.88
2023-04-15T06:54:38.074Z,17.63
2023-04-15T06:57:04.857Z,12.95
2023-04-15T06:59:31.722Z,15.18
2023-04-15T07:01:58.522Z,14.02
2023-04-15T07:04:25.608Z,13.15
2023-04-15T07:06:52.615Z,14.55
2023-04-15T07:09:19.752Z,17.15
2023-04-15T07:11:46.575Z,14.65
2023-04-15T07:14:13.319Z,14.88
2023-04-15T07:16:40.107Z,12.75
2023-04-15T07:19:07.341Z,13.68
2023-04-15T07:21:34.068Z,13.07
2023-04-15T07:24:00.781Z,15.43
2023-04-15T07:26:27.526Z,11.98
2023-04-15T07:28:54.229Z,14.63
2023-04-15T07:31:21.098Z,12.35
2023-04-15T07:33:48.037Z,13.57
2023-04-15T07:36:15.332Z,13.50
2023-04-15T07:38:42.574Z,13.70
2023-04-15T07:41:09.456Z,11.48
2023-04-15T07:43:36.169Z,11.65
2023-04-15T07:46:02.949Z,12.93
2023-04-15T07:48:29.728Z,12.02
2023-04-15T07:50:56.752Z,10.95
2023-04-15T07:53:23.484Z,12.52
2023-04-15T07:55:50.705Z,12.45
2023-04-15T07:58:17.410Z,14.57
2023-04-15T08:00:44.672Z,12.43
2023-04-15T08:03:11.808Z,10.65
2023-04-15T08:05:38.708Z,11.65
2023-04-15T08:08:05.472Z,12.48
2023-04-15T08:10:32.224Z,13.40
2023-04-15T08:12:58.976Z,11.93
2023-04-15T08:15:26.545Z,11.93
2023-04-15T08:17:53.390Z,11.70
2023-04-15T08:20:20.637Z,12.65
2023-04-15T08:22:51.707Z,11.45
2023-04-15T08:25:19.906Z,11.90
2023-04-15T08:27:46.633Z,13.65
2023-04-15T08:30:13.904Z,13.30
2023-04-15T08:32:42.629Z,10.85
2023-04-15T08:35:10.359Z,11.75
2023-04-15T08:37:37.079Z,10.82
2023-04-15T08:40:05.003Z,10.77
2023-04-15T08:42:37.427Z,8.02
2023-04-15T08:45:05.712Z,6.78
2023-04-15T08:47:33.686Z,6.85
2023-04-15T08:50:04.303Z,6.38
2023-04-15T08:52:32.145Z,6.82
2023-04-15T08:55:00.252Z,8.00
2023-04-15T08:57:28.976Z,6.75
2023-04-15T08:59:58.851Z,7.65
2023-04-15T09:02:27.308Z,5.63
2023-04-15T09:04:54.391Z,5.93
2023-04-15T09:07:21.248Z,7.32
2023-04-15T09:09:49.386Z,7.43
2023-04-15T09:12:17.131Z,6.45
2023-04-15T09:14:48.026Z,7.30
2023-04-15T09:17:20.603Z,7.90
2023-04-15T09:19:47.738Z,7.78
2023-04-15T09:22:15.396Z,7.30
2023-04-15T09:24:43.311Z,7.45
2023-04-15T09:27:10.199Z,5.10
2023-04-15T09:29:37.411Z,6.57
2023-04-15T09:32:15.465Z,5.10
2023-04-15T09:34:42.841Z,4.32
2023-04-15T09:37:10.899Z,5.88
2023-04-15T09:39:52.462Z,6.72
2023-04-15T09:42:24.601Z,9.68
2023-04-15T09:44:55.230Z,5.75
2023-04-15T09:47:32.545Z,5.28
2023-04-15T09:50:01.510Z,5.05
2023-04-15T09:52:29.313Z,3.88
2023-04-15T09:54:59.618Z,5.03
2023-04-15T09:57:36.244Z,7.03
2023-04-15T10:00:08.946Z,6.70
2023-04-15T10:02:37.065Z,4.35
2023-04-15T10:05:04.681Z,9.10
2023-04-15T10:07:32.602Z,4.82
2023-04-15T10:10:02.383Z,3.55
2023-04-15T10:12:31.095Z,4.38
2023-04-15T10:15:05.004Z,3.42
2023-04-15T10:17:35.272Z,4.32
2023-04-15T10:20:04.644Z,5.05
2023-04-15T10:22:33.093Z,3.88
2023-04-15T10:25:01.066Z,3.97
2023-04-15T10:27:28.714Z,4.10
2023-04-15T10:29:56.821Z,2.92
2023-04-15T10:32:24.770Z,3.00
2023-04-15T10:34:54.545Z,3.50
2023-04-15T10:37:32.934Z,4.32
2023-04-15T10:39:59.650Z,3.30
2023-04-15T10:42:35.131Z,4.18
2023-04-15T10:45:02.069Z,6.40
2023-04-15T10:47:28.916Z,4.47
2023-04-15T10:50:01.053Z,6.20
2023-04-15T10:52:29.354Z,7.03
2023-04-15T10:55:24.577Z,6.05
2023-04-15T10:57:59.224Z,5.63
2023-04-15T11:00:31.429Z,7.38
2023-04-15T11:03:09.444Z,6.53
2023-04-15T11:05:39.382Z,5.35
2023-04-15T11:08:06.083Z,8.82
2023-04-15T11:10:32.703Z,4.70
2023-04-15T11:13:09.343Z,6.05
2023-04-15T11:15:42.455Z,5.88
2023-04-15T11:18:19.014Z,8.95
2023-04-15T11:20:54.860Z,6.47
2023-04-15T11:23:57.645Z,3.40
2023-04-15T11:26:27.193Z,4.05
2023-04-15T11:28:54.522Z,4.35
2023-04-15T11:31:23.185Z,5.55
2023-04-15T11:34:02.180Z,5.35
2023-04-15T11:36:31.888Z,5.97
2023-04-15T11:38:59.766Z,5.93
2023-04-15T11:41:26.808Z,3.88
2023-04-15T11:43:53.687Z,6.93
2023-04-15T11:46:22.945Z,4.30
2023-04-15T11:48:49.821Z,5.80
2023-04-15T11:51:16.652Z,4.63
2023-04-15T11:53:51.129Z,3.28
2023-04-15T11:56:23.338Z,4.55
2023-04-15T11:58:57.068Z,4.25
2023-04-15T12:01:35.936Z,5.35
2023-04-15T12:04:11.916Z,3.53
2023-04-15T12:06:39.103Z,3.53
2023-04-15T12:09:17.997Z,4.07
2023-04-15T12:11:50.936Z,4.38
2023-04-15T12:14:31.916Z,6.70
2023-04-15T12:17:07.892Z,4.60
2023-04-15T12:19:41.693Z,4.70
2023-04-15T12:22:13.852Z,4.07
2023-04-15T12:24:43.807Z,4.55
2023-04-15T12:27:14.206Z,3.15
2023-04-15T12:29:43.112Z,5.07
2023-04-15T12:32:13.424Z,3.95
2023-04-15T12:34:59.600Z,4.32
2023-04-15T12:37:26.353Z,4.32
2023-04-15T12:39:54.268Z,4.50
2023-04-15T12:42:22.447Z,4.38
2023-04-15T12:44:49.227Z,6.63
2023-04-15T12:47:16.082Z,6.43
2023-04-15T12:49:43.159Z,8.27
2023-04-15T12:52:10.005Z,4.40
2023-04-15T12:54:36.822Z,6.25
2023-04-15T12:57:06.828Z,4.63
2023-04-15T12:59:34.569Z,4.18
2023-04-15T13:02:02.693Z,4.22
2023-04-15T13:04:31.063Z,4.53
2023-04-15T13:06:58.311Z,4.13
2023-04-15T13:09:25.144Z,2.13
2023-04-15T13:11:52.578Z,4.93
2023-04-15T13:14:19.418Z,2.53
2023-04-15T13:16:46.310Z,5.72
2023-04-15T13:19:13.071Z,2.33
2023-04-15T13:21:39.806Z,2.85
2023-04-15T13:24:07.277Z,3.15
2023-04-15T13:26:34.214Z,2.17
2023-04-15T13:29:01.802Z,4.75
2023-04-15T13:31:28.703Z,4.03
2023-04-15T13:33:57.138Z,4.32
2023-04-15T13:36:23.853Z,2.63
2023-04-15T13:38:51.452Z,2.35
2023-04-15T13:41:18.628Z,4.20
2023-04-15T13:43:45.552Z,4.40
2023-04-15T13:46:12.578Z,2.78
2023-04-15T13:48:39.523Z,3.60
2023-04-15T13:51:06.330Z,3.53
2023-04-15T13:53:38.374Z,3.88
2023-04-15T13:56:09.981Z,2.60
2023-04-15T13:58:37.762Z,2.78
2023-04-15T14:01:06.740Z,2.17
2023-04-15T14:03:36.574Z,4.10
2023-04-15T14:06:04.781Z,3.63
2023-04-15T14:08:31.674Z,6.05
2023-04-15T14:10:58.404Z,2.15
2023-04-15T14:13:25.265Z,1.75
2023-04-15T14:15:52.053Z,3.83
2023-04-15T14:18:18.797Z,2.13
2023-04-15T14:20:46.040Z,4.63
2023-04-15T14:23:12.756Z,2.78
2023-04-15T14:25:39.702Z,6.53
2023-04-15T14:28:06.544Z,3.90
2023-04-15T14:30:33.618Z,2.53
2023-04-15T14:33:00.464Z,2.10
2023-04-15T14:35:27.366Z,1.20
2023-04-15T14:37:55.573Z,2.20
2023-04-15T14:40:22.797Z,1.60
2023-04-15T14:42:49.689Z,2.70
2023-04-15T14:45:16.565Z,3.83
2023-04-15T14:47:43.825Z,2.67
2023-04-15T14:50:10.866Z,1.33
2023-04-15T14:52:40.294Z,1.30
2023-04-15T14:55:11.890Z,1.98
2023-04-15T14:57:40.594Z,1.98
2023-04-15T15:00:09.870Z,2.75
2023-04-15T15:02:40.150Z,2.70
2023-04-15T15:05:09.553Z,2.17
2023-04-15T15:07:38.171Z,2.35
2023-04-15T15:10:06.014Z,1.98
2023-04-15T15:12:33.674Z,2.13
2023-04-15T15:15:04.882Z,1.67
2023-04-15T15:17:35.464Z,1.98
2023-04-15T15:20:03.543Z,3.10
2023-04-15T15:22:30.419Z,1.92
2023-04-15T15:24:59.117Z,2.30
2023-04-15T15:27:25.878Z,2.88
2023-04-15T15:29:52.629Z,1.90
2023-04-15T15:32:19.432Z,2.50
2023-04-15T15:34:46.191Z,1.77
2023-04-15T15:37:12.926Z,1.65
2023-04-15T15:39:40.042Z,1.95
2023-04-15T15:42:07.550Z,1.90
2023-04-15T15:44:36.173Z,3.47
2023-04-15T15:47:02.989Z,1.80
2023-04-15T15:49:29.778Z,2.67
2023-04-15T15:51:57.677Z,1.58
2023-04-15T15:54:25.003Z,2.30
2023-04-15T15:56:51.729Z,3.13
2023-04-15T15:59:18.474Z,2.53
2023-04-15T16:01:45.408Z,2.33
2023-04-15T16:04:12.436Z,3.65
2023-04-15T16:06:40.397Z,2.28
2023-04-15T16:09:07.236Z,5.90
2023-04-15T16:11:34.062Z,2.90
2023-04-15T16:14:00.867Z,4.28
2023-04-15T16:16:29.145Z,1.35
2023-04-15T16:18:57.763Z,1.60
2023-04-15T16:21:27.337Z,1.00
2023-04-15T16:23:54.199Z,1.60
2023-04-15T16:26:21.664Z,2.85
2023-04-15T16:28:48.429Z,1.98
2023-04-15T16:31:15.275Z,1.20
2023-04-15T16:33:42.019Z,3.38
2023-04-15T16:36:08.732Z,2.72
2023-04-15T16:38:35.439Z,2.30
2023-04-15T16:41:02.613Z,2.45
2023-04-15T16:43:29.574Z,1.05
2023-04-15T16:45:56.367Z,1.63
2023-04-15T16:48:23.120Z,2.05
2023-04-15T16:50:49.879Z,2.22
2023-04-15T16:53:16.828Z,1.65
2023-04-15T16:55:43.542Z,1.63
2023-04-15T16:58:10.371Z,1.30
2023-04-15T17:00:37.269Z,3.22
2023-04-15T17:03:05.113Z,1.55
2023-04-15T17:05:32.054Z,1.92
2023-04-15T17:07:59.200Z,2.88
2023-04-15T17:10:26.665Z,2.92
2023-04-15T17:12:56.276Z,4.15
2023-04-15T17:15:23.287Z,2.35
2023-04-15T17:17:50.083Z,1.65
2023-04-15T17:20:19.526Z,2.90
2023-04-15T17:22:48.413Z,4.90
2023-04-15T17:25:15.865Z,4.88
2023-04-15T17:27:42.650Z,4.05
2023-04-15T17:30:09.888Z,3.65
2023-04-15T17:32:37.175Z,1.77
2023-04-15T17:35:06.330Z,2.58
2023-04-15T17:37:34.244Z,3.00
2023-04-15T17:40:01.185Z,7.90
2023-04-15T17:42:28.006Z,6.63
2023-04-15T17:44:54.719Z,5.80
2023-04-15T17:47:21.586Z,5.10
2023-04-15T17:49:48.316Z,4.85
2023-04-15T17:52:15.097Z,3.97
2023-04-15T17:54:41.932Z,5.40
2023-04-15T17:57:09.510Z,4.63
2023-04-15T17:59:36.306Z,5.95
2023-04-15T18:02:03.130Z,5.35
2023-04-15T18:04:30.407Z,3.85
2023-04-15T18:06:57.321Z,4.85
2023-04-15T18:09:24.022Z,4.22
2023-04-15T18:11:50.780Z,1.65
2023-04-15T18:14:30.587Z,6.95
2023-04-15T18:17:01.157Z,3.40
2023-04-15T18:19:27.978Z,8.13
2023-04-15T18:21:54.726Z,6.50
2023-04-15T18:24:22.260Z,7.00
2023-04-15T18:26:49.385Z,5.07
2023-04-15T18:29:16.352Z,8.07
2023-04-15T18:31:43.255Z,5.50
2023-04-15T18:34:10.131Z,3.42
2023-04-15T18:36:36.898Z,5.75
2023-04-15T18:39:04.340Z,4.53
2023-04-15T18:41:31.322Z,5.55
2023-04-15T18:43:58.093Z,5.32
2023-04-15T18:46:24.943Z,7.20
2023-04-15T18:48:51.679Z,7.88
2023-04-15T18:51:18.426Z,7.90
2023-04-15T18:53:45.512Z,14.88
2023-04-15T18:56:12.263Z,7.82
2023-04-15T18:59:18.457Z,6.68
2023-04-15T19:01:26.272Z,7.97
2023-04-15T19:03:53.049Z,9.50
2023-04-15T19:06:19.907Z,9.98
2023-04-15T19:08:46.626Z,8.15
2023-04-15T19:11:13.387Z,7.82
2023-04-15T19:13:40.691Z,7.38
2023-04-15T19:16:07.491Z,10.02
2023-04-15T19:18:34.301Z,11.90
2023-04-15T19:21:01.196Z,10.93
2023-04-15T19:23:27.932Z,9.43
2023-04-15T19:25:54.693Z,11.32
2023-04-15T19:28:21.426Z,9.50
2023-04-15T19:30:48.189Z,10.23
2023-04-15T19:33:15.217Z,7.38
2023-04-15T19:35:41.973Z,8.65
2023-04-15T19:38:08.765Z,17.25
2023-04-15T19:40:35.565Z,13.82
2023-04-15T19:43:02.294Z,8.90
2023-04-15T19:45:29.020Z,8.38
2023-04-15T19:47:56.040Z,7.22
2023-04-15T19:50:26.150Z,11.00
2023-04-15T19:52:53.809Z,9.30
2023-04-15T19:55:20.823Z,8.73
2023-04-15T19:57:47.537Z,4.95
2023-04-15T20:00:14.587Z,6.47
2023-04-15T20:02:41.430Z,7.45
2023-04-15T20:05:10.095Z,7.00
2023-04-15T20:07:37.182Z,7.15
2023-04-15T20:10:08.641Z,9.85
2023-04-15T20:12:50.054Z,8.27
2023-04-15T20:15:19.404Z,6.00
2023-04-15T20:17:46.188Z,9.43
2023-04-15T20:20:13.066Z,7.00
2023-04-15T20:22:39.862Z,8.52
2023-04-15T20:25:07.322Z,8.27
2023-04-15T20:27:34.141Z,6.65
2023-04-15T20:30:01.078Z,5.53
2023-04-15T20:32:28.321Z,5.97
2023-04-15T20:34:55.223Z,5.05
2023-04-15T20:37:22.304Z,7.78
2023-04-15T20:39:49.152Z,7.07
2023-04-15T20:42:16.090Z,8.15
2023-04-15T20:44:42.830Z,7.80
2023-04-15T20:47:10.862Z,6.70
2023-04-15T20:49:39.577Z,8.63
2023-04-15T20:52:07.848Z,5.88
2023-04-15T20:54:35.218Z,10.85
2023-04-15T20:57:02.015Z,9.98
2023-04-15T20:59:28.882Z,4.53
2023-04-15T21:01:57.006Z,7.70
2023-04-15T21:04:24.421Z,10.20
2023-04-15T21:06:52.218Z,8.48
2023-04-15T21:09:19.236Z,10.32
2023-04-15T21:14:19.671Z,6.90
2023-04-15T21:16:46.515Z,9.63
2023-04-15T21:19:13.320Z,4.28
2023-04-15T21:21:40.149Z,6.80
2023-04-15T21:24:10.188Z,8.30
2023-04-15T21:26:36.932Z,7.47
2023-04-15T21:29:03.954Z,5.20
2023-04-15T21:31:30.828Z,6.18
2023-04-15T21:33:57.582Z,5.68
2023-04-15T21:36:24.421Z,9.35
2023-04-15T21:38:51.190Z,6.35
2023-04-15T21:41:17.967Z,9.20
2023-04-15T21:43:44.835Z,6.95
2023-04-15T21:46:24.394Z,8.85
2023-04-15T21:48:53.535Z,10.50
2023-04-15T21:51:20.475Z,10.65
2023-04-15T21:53:47.212Z,9.88
2023-04-15T21:56:13.932Z,7.72
2023-04-15T21:58:40.765Z,8.75
2023-04-15T22:01:07.532Z,9.73
2023-04-15T22:03:35.237Z,7.75
2023-04-15T22:06:05.308Z,5.18
2023-04-15T22:08:38.668Z,8.18
2023-04-15T22:11:26.272Z,4.68
2023-04-15T22:13:54.038Z,6.93
2023-04-15T22:16:21.071Z,7.25
2023-04-15T22:18:47.844Z,10.20
2023-04-15T22:21:14.692Z,9.43
2023-04-15T22:23:41.548Z,8.57
2023-04-15T22:26:08.309Z,7.35
2023-04-15T22:28:35.067Z,7.80
2023-04-15T22:31:02.224Z,9.60
2023-04-15T22:33:29.325Z,8.10
2023-04-15T22:35:56.566Z,6.55
2023-04-15T22:38:24.481Z,6.13
2023-04-15T22:40:53.806Z,6.10
2023-04-15T22:43:20.697Z,10.10
2023-04-15T22:45:51.276Z,9.80
2023-04-15T22:48:18.902Z,5.93
2023-04-15T22:50:46.029Z,7.68
2023-04-15T22:53:12.913Z,9.23
2023-04-15T22:55:39.664Z,8.63
2023-04-15T22:58:06.424Z,6.40
2023-04-15T23:00:33.169Z,9.30
2023-04-15T23:03:00.233Z,7.05
2023-04-15T23:05:27.670Z,10.45
2023-04-15T23:07:54.525Z,8.23
2023-04-15T23:10:21.392Z,7.97
2023-04-15T23:12:48.169Z,5.57
2023-04-15T23:15:14.962Z,6.35
2023-04-15T23:17:42.644Z,10.57
2023-04-15T23:20:11.149Z,7.82
2023-04-15T23:22:38.250Z,10.25
2023-04-15T23:25:05.768Z,8.15
2023-04-15T23:27:32.598Z,5.82
2023-04-15T23:29:59.315Z,9.77
2023-04-15T23:32:27.248Z,8.10
2023-04-15T23:34:54.095Z,11.48
2023-04-15T23:37:20.902Z,4.38
2023-04-15T23:39:47.630Z,8.20
2023-04-15T23:42:14.358Z,6.78
2023-04-15T23:44:41.181Z,5.68
2023-04-15T23:47:07.992Z,7.75
2023-04-15T23:49:36.453Z,6.88
2023-04-15T23:52:03.396Z,5.60
2023-04-15T23:54:30.256Z,5.32
2023-04-15T23:56:56.992Z,8.63
2023-04-15T23:59:23.717Z,8.65
